Time;durP1;ratioP1;P1;durP2;ratioP2;P2;SDS_P1;SDS_P2;PMS_P1;PMS_P2;Temp;Humidity;BMP_temperature;BMP_pressure;BME280_temperature;BME280_humidity;BME280_pressure;Samples;Min_cycle;Max_cycle;Signal;HPM_P1;HPM_P2
2022/11/18 00:01:21;;;;;;;3.93;1.30;;;9.40;99.90;;;;;;5061798;28;20449;-80
2022/11/18 00:03:49;;;;;;;8.00;1.80;;;9.50;99.90;;;;;;5061537;28;20549;-81
2022/11/18 00:06:18;;;;;;;3.60;1.23;;;9.50;99.90;;;;;;5061409;28;20482;-81
2022/11/18 00:08:45;;;;;;;2.43;1.30;;;9.50;99.90;;;;;;5060167;28;20571;-81
2022/11/18 00:14:17;;;;;;;3.23;1.47;;;9.60;99.90;;;;;;5060961;28;20546;-81
2022/11/18 00:16:52;;;;;;;4.60;1.77;;;9.70;99.90;;;;;;5054137;28;20994;-81
2022/11/18 00:19:21;;;;;;;6.30;1.40;;;9.70;99.90;;;;;;5061411;28;20519;-81
2022/11/18 00:21:47;;;;;;;3.90;1.77;;;9.80;99.90;;;;;;5060893;28;20546;-80
2022/11/18 00:24:14;;;;;;;3.30;1.30;;;9.80;99.90;;;;;;5060151;28;20554;-81
2022/11/18 00:26:41;;;;;;;2.30;1.27;;;9.90;99.90;;;;;;5071979;28;20470;-79
2022/11/18 00:29:11;;;;;;;4.10;1.40;;;9.90;99.90;;;;;;5072995;28;20513;-79
2022/11/18 00:31:38;;;;;;;4.93;1.70;;;9.90;99.90;;;;;;5072315;28;20477;-81
2022/11/18 00:34:05;;;;;;;3.23;1.90;;;10.00;99.90;;;;;;5063337;28;20530;-81
2022/11/18 00:36:33;;;;;;;3.20;1.40;;;10.00;99.90;;;;;;5063171;28;20451;-80
2022/11/18 00:39:00;;;;;;;5.00;1.40;;;10.00;99.90;;;;;;5062600;28;20532;-81
2022/11/18 00:42:49;;;;;;;2.43;1.50;;;10.10;99.90;;;;;;5062545;28;20526;-81
2022/11/18 00:44:14;;;;;;;2.77;1.63;;;10.10;99.90;;;;;;5062877;28;20514;-81
2022/11/18 00:46:41;;;;;;;5.90;1.67;;;10.10;99.90;;;;;;5063414;28;20831;-81
2022/11/18 00:49:08;;;;;;;2.70;1.90;;;10.20;99.90;;;;;;5062223;28;20501;-80
2022/11/18 00:51:35;;;;;;;4.93;1.60;;;10.10;99.90;;;;;;5062125;28;20443;-81
2022/11/18 00:54:02;;;;;;;2.67;1.37;;;10.20;99.90;;;;;;5062486;28;20571;-81
2022/11/18 00:56:29;;;;;;;3.00;1.10;;;10.10;99.90;;;;;;5062400;28;20454;-81
2022/11/18 00:58:56;;;;;;;5.53;1.90;;;10.20;99.90;;;;;;5061671;28;20533;-80
2022/11/18 01:01:25;;;;;;;7.03;1.43;;;10.20;99.90;;;;;;5061210;28;20535;-81
2022/11/18 01:03:52;;;;;;;5.10;1.53;;;10.10;99.90;;;;;;5061684;28;20566;-81
2022/11/18 01:06:19;;;;;;;2.00;1.23;;;10.10;99.90;;;;;;5060809;28;20456;-80
2022/11/18 01:08:46;;;;;;;6.20;1.50;;;10.20;99.90;;;;;;5060734;28;20485;-81
2022/11/18 01:13:57;;;;;;;3.63;1.33;;;10.20;99.90;;;;;;5060011;28;20469;-81
2022/11/18 01:16:28;;;;;;;3.13;1.53;;;10.20;99.90;;;;;;5061247;28;20515;-81
2022/11/18 01:18:55;;;;;;;3.30;1.57;;;10.20;99.90;;;;;;5060137;28;20463;-80
2022/11/18 01:21:22;;;;;;;3.40;1.77;;;10.20;99.90;;;;;;5060700;28;20459;-80
2022/11/18 01:23:49;;;;;;;4.27;1.30;;;10.20;99.90;;;;;;5059751;28;20475;-80
2022/11/18 01:26:16;;;;;;;4.03;1.50;;;10.20;99.90;;;;;;5060731;28;20456;-81
2022/11/18 01:28:44;;;;;;;3.33;1.10;;;10.20;99.90;;;;;;5060533;28;20956;-81
2022/11/18 01:31:12;;;;;;;4.00;1.30;;;10.20;99.90;;;;;;5060870;28;20981;-80
2022/11/18 01:33:41;;;;;;;5.43;2.17;;;10.30;99.90;;;;;;5060987;28;20553;-81
2022/11/18 01:36:16;;;;;;;5.07;1.63;;;10.20;99.90;;;;;;5060365;28;20541;-80
2022/11/18 01:38:43;;;;;;;3.00;1.50;;;10.30;99.90;;;;;;5059389;28;20530;-80
2022/11/18 01:41:10;;;;;;;4.67;1.60;;;10.30;99.90;;;;;;5060221;28;20519;-80
2022/11/18 01:43:50;;;;;;;3.60;1.73;;;10.30;99.90;;;;;;5059696;28;20475;-79
2022/11/18 01:46:17;;;;;;;2.00;1.20;;;10.30;99.90;;;;;;5059863;28;20552;-80
2022/11/18 01:48:47;;;;;;;4.07;1.50;;;10.30;99.90;;;;;;5059398;28;20497;-80
2022/11/18 01:51:17;;;;;;;3.67;1.70;;;10.40;99.90;;;;;;5057128;28;20455;-79
2022/11/18 01:53:49;;;;;;;3.00;1.50;;;10.30;99.90;;;;;;5056422;28;20488;-79
2022/11/18 01:56:21;;;;;;;5.77;2.40;;;10.30;99.90;;;;;;5055931;28;20465;-79
2022/11/18 01:58:52;;;;;;;5.70;1.43;;;10.30;99.90;;;;;;5055784;28;20456;-79
2022/11/18 02:01:19;;;;;;;6.17;2.13;;;10.30;99.90;;;;;;5055798;28;20842;-78
2022/11/18 02:03:49;;;;;;;6.47;2.07;;;10.30;99.90;;;;;;5056598;28;20471;-79
2022/11/18 02:06:16;;;;;;;3.27;1.60;;;10.30;99.90;;;;;;5056311;28;20460;-79
2022/11/18 02:08:43;;;;;;;4.13;1.90;;;10.30;99.90;;;;;;5055991;28;20479;-78
2022/11/18 02:11:49;;;;;;;5.97;2.03;;;10.30;99.90;;;;;;5055774;28;20470;-79
2022/11/18 02:14:02;;;;;;;6.50;1.73;;;10.30;99.90;;;;;;5055269;28;20908;-79
2022/11/18 02:16:40;;;;;;;3.40;1.70;;;10.20;99.90;;;;;;5053730;28;20448;-79
2022/11/18 02:19:46;;;;;;;7.20;1.80;;;10.20;99.90;;;;;;5055412;28;20452;-79
2022/11/18 02:22:29;;;;;;;6.30;2.50;;;10.10;99.90;;;;;;5034585;28;20846;-79
2022/11/18 02:25:03;;;;;;;3.93;1.73;;;10.10;99.90;;;;;;5055348;28;20451;-78
2022/11/18 02:28:05;;;;;;;5.77;3.00;;;10.10;99.90;;;;;;5056142;28;20493;-79
2022/11/18 02:30:42;;;;;;;6.30;1.60;;;10.10;99.90;;;;;;5052968;28;20482;-78
2022/11/18 02:33:12;;;;;;;3.00;1.20;;;10.00;99.90;;;;;;5057024;28;20469;-78
2022/11/18 02:35:42;;;;;;;4.40;1.77;;;10.00;99.90;;;;;;5056476;28;20457;-79
2022/11/18 02:38:11;;;;;;;4.30;1.53;;;10.00;99.90;;;;;;5057066;28;20523;-80
2022/11/18 02:40:43;;;;;;;6.53;1.83;;;10.00;99.90;;;;;;5057403;28;20812;-78
2022/11/18 02:43:14;;;;;;;5.43;1.67;;;10.00;99.90;;;;;;5057929;28;20541;-79
2022/11/18 02:45:46;;;;;;;5.40;1.57;;;10.00;99.90;;;;;;5057485;28;20458;-79
2022/11/18 02:48:14;;;;;;;2.27;1.40;;;9.90;99.90;;;;;;5057295;28;20553;-78
2022/11/18 02:50:44;;;;;;;6.10;2.00;;;9.90;99.90;;;;;;5056629;28;20487;-79
2022/11/18 02:53:14;;;;;;;3.73;1.63;;;9.90;99.90;;;;;;5057013;28;20482;-79
2022/11/18 02:55:43;;;;;;;2.53;1.20;;;9.80;99.90;;;;;;5057000;28;20451;-79
2022/11/18 02:58:11;;;;;;;3.00;1.23;;;9.80;99.90;;;;;;5057410;28;20453;-79
2022/11/18 03:00:38;;;;;;;5.20;1.27;;;9.70;99.90;;;;;;5057294;28;20565;-79
2022/11/18 03:03:26;;;;;;;5.43;2.60;;;9.80;99.90;;;;;;5056755;28;20478;-79
2022/11/18 03:06:03;;;;;;;2.83;1.13;;;9.70;99.90;;;;;;5037764;28;20460;-79
2022/11/18 03:08:36;;;;;;;3.40;1.20;;;9.70;99.90;;;;;;5053900;28;20545;-79
2022/11/18 03:11:11;;;;;;;3.50;1.30;;;9.70;99.90;;;;;;5062196;28;20442;-78
2022/11/18 03:13:46;;;;;;;3.57;1.37;;;9.70;99.90;;;;;;5062740;28;21077;-78
2022/11/18 03:16:18;;;;;;;3.00;1.37;;;9.70;99.90;;;;;;5063458;28;20533;-78
2022/11/18 03:18:54;;;;;;;3.27;1.40;;;9.70;99.90;;;;;;5059864;28;20487;-79
2022/11/18 03:21:28;;;;;;;3.33;1.40;;;9.70;99.90;;;;;;5061782;28;20447;-79
2022/11/18 03:24:02;;;;;;;2.30;1.20;;;9.70;99.90;;;;;;5062876;28;20508;-79
2022/11/18 03:26:34;;;;;;;3.10;1.30;;;9.80;99.90;;;;;;5062031;28;20461;-79
2022/11/18 03:29:04;;;;;;;3.10;1.20;;;9.80;99.90;;;;;;5059455;28;20485;-79
2022/11/18 03:31:38;;;;;;;5.80;1.60;;;9.80;99.90;;;;;;5057866;28;20534;-79
2022/11/18 03:34:11;;;;;;;2.90;1.30;;;9.80;99.90;;;;;;5040854;28;20467;-79
2022/11/18 03:36:41;;;;;;;5.60;1.93;;;9.90;99.90;;;;;;5051656;28;20531;-79
2022/11/18 03:39:10;;;;;;;3.83;1.63;;;9.90;99.90;;;;;;5060559;28;21058;-79
2022/11/18 03:41:42;;;;;;;3.27;1.60;;;9.90;99.90;;;;;;5061701;28;20457;-79
2022/11/18 03:44:16;;;;;;;2.93;1.50;;;9.90;99.90;;;;;;5059970;28;20476;-79
2022/11/18 03:46:47;;;;;;;2.50;1.67;;;10.00;99.90;;;;;;5059657;28;20457;-79
2022/11/18 03:49:20;;;;;;;2.73;1.40;;;10.00;99.90;;;;;;5058055;28;20573;-80
2022/11/18 03:51:51;;;;;;;4.77;2.00;;;10.00;99.90;;;;;;5059805;28;20815;-80
2022/11/18 03:54:23;;;;;;;3.10;1.53;;;10.00;99.90;;;;;;5059945;28;20485;-80
2022/11/18 03:56:57;;;;;;;2.33;1.30;;;10.00;99.90;;;;;;5059789;28;20457;-80
2022/11/18 03:59:28;;;;;;;3.63;1.53;;;10.00;99.90;;;;;;5058767;28;20841;-79
2022/11/18 04:01:59;;;;;;;5.13;1.47;;;10.00;99.90;;;;;;5058551;28;20482;-79
2022/11/18 04:04:28;;;;;;;2.90;1.53;;;10.10;99.90;;;;;;5058999;28;20470;-80
2022/11/18 04:07:01;;;;;;;2.87;1.40;;;10.00;99.90;;;;;;5059064;28;20963;-79
2022/11/18 04:09:32;;;;;;;4.50;1.83;;;10.10;99.90;;;;;;5058463;28;21073;-80
2022/11/18 04:12:04;;;;;;;4.03;1.87;;;10.10;99.90;;;;;;5059570;28;20454;-80
2022/11/18 04:14:32;;;;;;;5.57;1.70;;;10.10;99.90;;;;;;5059266;28;20515;-81
2022/11/18 04:16:59;;;;;;;5.50;1.30;;;10.20;99.90;;;;;;5058198;28;20482;-79
2022/11/18 04:19:28;;;;;;;7.03;1.73;;;10.20;99.90;;;;;;5058532;28;20454;-80
2022/11/18 04:21:55;;;;;;;3.40;1.60;;;10.20;99.90;;;;;;5059657;28;20454;-80
2022/11/18 04:24:21;;;;;;;3.40;1.67;;;10.20;99.90;;;;;;5058816;28;20464;-79
2022/11/18 04:26:48;;;;;;;2.47;2.00;;;10.20;99.90;;;;;;5058405;28;20990;-79
2022/11/18 04:29:15;;;;;;;4.87;1.50;;;10.20;99.90;;;;;;5058774;28;20993;-80
2022/11/18 04:31:42;;;;;;;4.20;1.90;;;10.20;99.90;;;;;;5056717;28;20469;-80
2022/11/18 04:34:08;;;;;;;7.50;1.77;;;10.30;99.90;;;;;;5057390;28;20833;-79
2022/11/18 04:36:36;;;;;;;4.27;1.40;;;10.30;99.90;;;;;;5056974;28;20461;-79
2022/11/18 04:39:03;;;;;;;5.77;2.13;;;10.30;99.90;;;;;;5058226;28;20444;-80
2022/11/18 04:44:14;;;;;;;2.47;1.33;;;10.30;99.90;;;;;;5037194;28;20446;-79
2022/11/18 04:46:42;;;;;;;3.20;1.70;;;10.30;99.90;;;;;;5056192;28;20465;-80
2022/11/18 04:49:09;;;;;;;2.80;1.50;;;10.30;99.90;;;;;;5057824;28;20837;-78
2022/11/18 04:51:37;;;;;;;3.03;1.60;;;10.30;99.90;;;;;;5057046;28;20980;-79
2022/11/18 04:54:04;;;;;;;3.13;1.70;;;10.30;99.90;;;;;;5057722;28;20492;-80
2022/11/18 04:56:31;;;;;;;3.10;1.57;;;10.30;99.90;;;;;;5056713;28;20462;-80
2022/11/18 04:58:59;;;;;;;3.37;1.47;;;10.30;99.90;;;;;;5051707;28;20972;-79
2022/11/18 05:01:26;;;;;;;3.40;1.73;;;10.20;99.90;;;;;;5056209;28;20450;-79
2022/11/18 05:03:53;;;;;;;4.40;1.60;;;10.30;99.90;;;;;;5052462;28;20500;-79
2022/11/18 05:06:21;;;;;;;3.27;1.60;;;10.20;99.90;;;;;;5055314;28;20447;-78
2022/11/18 05:08:49;;;;;;;3.00;1.50;;;10.20;99.90;;;;;;5058480;28;20620;-80
2022/11/18 05:14:00;;;;;;;2.53;1.57;;;10.20;99.90;;;;;;5056331;28;20997;-79
2022/11/18 05:16:27;;;;;;;3.37;1.63;;;10.10;99.90;;;;;;5056021;28;20454;-79
2022/11/18 05:18:54;;;;;;;5.73;1.77;;;10.10;99.90;;;;;;5055789;28;20451;-78
2022/11/18 05:21:21;;;;;;;2.40;1.40;;;10.10;99.90;;;;;;5055435;28;20472;-79
2022/11/18 05:23:49;;;;;;;3.70;2.00;;;10.00;99.90;;;;;;5056608;28;20475;-80
2022/11/18 05:26:16;;;;;;;3.43;1.77;;;10.00;99.90;;;;;;5057352;28;20453;-79
2022/11/18 05:28:42;;;;;;;3.73;1.60;;;10.10;99.90;;;;;;5056605;28;20542;-79
2022/11/18 05:31:11;;;;;;;4.50;2.00;;;10.10;99.90;;;;;;5057064;28;20485;-80
2022/11/18 05:33:38;;;;;;;4.43;1.90;;;10.10;99.90;;;;;;5056971;28;20474;-80
2022/11/18 05:36:06;;;;;;;5.30;1.73;;;10.10;99.90;;;;;;5056411;28;20455;-80
2022/11/18 05:38:32;;;;;;;3.30;1.70;;;10.10;99.90;;;;;;5056159;28;20558;-79
2022/11/18 05:41:01;;;;;;;5.00;2.13;;;10.10;99.90;;;;;;5056332;28;20450;-80
2022/11/18 05:43:27;;;;;;;3.80;2.03;;;10.10;99.90;;;;;;5054599;28;20477;-79
2022/11/18 05:45:55;;;;;;;3.40;1.70;;;10.20;99.90;;;;;;5052962;28;20886;-79
2022/11/18 05:48:22;;;;;;;3.77;1.93;;;10.20;99.90;;;;;;5050141;28;21031;-80
2022/11/18 05:50:50;;;;;;;2.63;1.93;;;10.20;99.90;;;;;;5057217;28;20574;-80
2022/11/18 05:53:18;;;;;;;5.30;2.20;;;10.20;99.90;;;;;;5058087;28;20490;-81
2022/11/18 05:55:51;;;;;;;4.17;1.70;;;10.20;99.90;;;;;;5101927;22;20559;-82
2022/11/18 05:58:19;;;;;;;4.20;2.50;;;10.20;99.90;;;;;;5084020;28;20537;-82
2022/11/18 06:00:48;;;;;;;4.30;2.53;;;10.20;99.90;;;;;;5077935;28;20534;-82
2022/11/18 06:03:21;;;;;;;4.20;2.50;;;10.20;99.90;;;;;;5080213;28;20520;-82
2022/11/18 06:05:48;;;;;;;3.90;2.20;;;10.30;99.90;;;;;;5078690;28;20498;-82
2022/11/18 06:08:17;;;;;;;3.97;1.77;;;10.30;99.90;;;;;;5086990;28;20505;-78
2022/11/18 06:10:47;;;;;;;5.50;2.20;;;10.30;99.90;;;;;;5086453;28;20510;-80
2022/11/18 06:13:20;;;;;;;4.33;2.67;;;10.30;99.90;;;;;;5080533;28;20457;-82
2022/11/18 06:15:47;;;;;;;5.60;2.70;;;10.30;99.90;;;;;;5081125;28;20534;-81
2022/11/18 06:18:20;;;;;;;3.80;1.67;;;10.40;99.90;;;;;;5080907;28;20917;-81
2022/11/18 06:20:48;;;;;;;3.43;2.07;;;10.30;99.90;;;;;;5081261;28;20479;-82
2022/11/18 06:23:15;;;;;;;7.80;2.30;;;10.30;99.90;;;;;;5074206;28;20462;-82
2022/11/18 06:25:42;;;;;;;5.80;1.90;;;10.30;99.90;;;;;;5073205;28;20482;-81
2022/11/18 06:28:12;;;;;;;4.73;2.77;;;10.30;99.90;;;;;;5081005;28;20550;-81
2022/11/18 06:30:40;;;;;;;4.73;1.93;;;10.30;99.90;;;;;;5082199;28;20496;-81
2022/11/18 06:33:07;;;;;;;4.50;2.73;;;10.30;99.90;;;;;;5081870;28;20473;-82
2022/11/18 06:35:34;;;;;;;5.40;2.00;;;10.20;99.90;;;;;;5081974;28;20500;-82
2022/11/18 06:38:00;;;;;;;4.07;1.83;;;10.30;99.90;;;;;;5081585;28;20513;-82
2022/11/18 06:40:27;;;;;;;7.40;2.43;;;10.30;99.90;;;;;;5083056;28;20449;-80
2022/11/18 06:46:54;;;;;;;4.30;1.83;;;10.30;99.90;;;;;;5081673;28;20892;-81
2022/11/18 06:48:26;;;;;;;4.93;1.83;;;10.30;99.90;;;;;;5082279;28;20450;-80
2022/11/18 06:50:53;;;;;;;3.63;2.10;;;10.30;99.90;;;;;;5081215;28;20479;-80
2022/11/18 06:53:19;;;;;;;4.33;2.40;;;10.30;99.90;;;;;;5082325;28;20302;-79
2022/11/18 06:55:46;;;;;;;6.17;2.40;;;10.20;99.90;;;;;;5080411;28;20482;-79
2022/11/18 06:58:13;;;;;;;7.77;2.80;;;10.30;99.90;;;;;;5079967;28;20541;-80
2022/11/18 07:00:41;;;;;;;8.37;3.57;;;10.30;99.90;;;;;;5079291;28;20509;-79
2022/11/18 07:03:08;;;;;;;6.60;2.47;;;10.40;99.90;;;;;;5081906;28;20450;-78
2022/11/18 07:05:34;;;;;;;3.70;1.90;;;10.40;99.90;;;;;;5081162;28;20461;-79
2022/11/18 07:08:01;;;;;;;7.50;2.80;;;10.40;99.90;;;;;;5078855;28;20460;-79
2022/11/18 07:10:28;;;;;;;4.10;2.50;;;10.40;99.90;;;;;;5083394;28;20482;-79
2022/11/18 07:12:55;;;;;;;4.00;2.40;;;10.40;99.90;;;;;;5085576;28;20457;-80
2022/11/18 07:15:21;;;;;;;5.33;2.73;;;10.50;99.90;;;;;;5083971;28;20473;-80
2022/11/18 07:17:50;;;;;;;4.87;2.60;;;10.40;99.90;;;;;;5083810;28;21004;-78
2022/11/18 07:20:16;;;;;;;4.03;2.53;;;10.50;99.90;;;;;;5082217;28;20446;-79
2022/11/18 07:22:43;;;;;;;7.37;3.10;;;10.50;99.90;;;;;;5082379;28;20452;-79
2022/11/18 07:25:10;;;;;;;4.97;2.40;;;10.50;99.90;;;;;;5084858;28;20473;-80
2022/11/18 07:27:37;;;;;;;7.60;4.47;;;10.50;99.90;;;;;;5086363;28;20543;-80
2022/11/18 07:30:04;;;;;;;5.57;2.93;;;10.40;99.90;;;;;;5080225;28;20446;-80
2022/11/18 07:32:33;;;;;;;5.60;2.50;;;10.40;99.90;;;;;;5080004;28;20459;-80
2022/11/18 07:35:01;;;;;;;7.23;3.43;;;10.40;99.90;;;;;;5077480;28;20468;-79
2022/11/18 07:37:28;;;;;;;4.03;2.63;;;10.40;99.90;;;;;;5084039;28;20456;-80
2022/11/18 07:39:55;;;;;;;8.87;3.00;;;10.40;99.90;;;;;;5083528;28;20523;-80
2022/11/18 07:42:21;;;;;;;5.30;3.03;;;10.50;99.90;;;;;;5080612;28;20450;-79
2022/11/18 07:44:48;;;;;;;6.07;2.97;;;10.50;99.90;;;;;;5084418;28;20473;-79
2022/11/18 07:47:15;;;;;;;5.70;3.20;;;10.50;99.90;;;;;;5079612;28;20456;-79
2022/11/18 07:49:42;;;;;;;6.10;3.13;;;10.50;99.90;;;;;;5083139;28;20452;-81
2022/11/18 07:52:10;;;;;;;5.40;3.50;;;10.50;99.90;;;;;;5076997;28;20486;-79
2022/11/18 07:54:36;;;;;;;6.70;4.03;;;10.50;99.90;;;;;;5075617;28;20486;-79
2022/11/18 07:57:03;;;;;;;6.03;3.40;;;10.60;99.90;;;;;;5081787;28;20458;-81
2022/11/18 07:59:30;;;;;;;5.20;2.90;;;10.60;99.90;;;;;;5081177;28;20455;-80
2022/11/18 08:01:58;;;;;;;6.07;3.33;;;10.60;99.90;;;;;;5083046;28;20474;-80
2022/11/18 08:04:25;;;;;;;6.37;3.00;;;10.70;99.90;;;;;;5077520;28;20486;-79
2022/11/18 08:06:52;;;;;;;11.13;3.87;;;10.70;99.90;;;;;;5059268;28;20948;-78
2022/11/18 08:09:20;;;;;;;9.73;3.87;;;10.60;99.90;;;;;;5068399;28;20453;-79
2022/11/18 08:11:47;;;;;;;6.73;3.33;;;10.60;99.90;;;;;;5079697;28;20494;-78
2022/11/18 08:14:14;;;;;;;4.00;2.80;;;10.70;99.90;;;;;;5078734;28;20982;-78
2022/11/18 08:16:40;;;;;;;7.80;3.00;;;10.70;99.90;;;;;;5079072;28;20449;-79
2022/11/18 08:19:07;;;;;;;6.13;3.53;;;10.80;99.90;;;;;;5079039;28;20478;-79
2022/11/18 08:21:34;;;;;;;4.87;3.00;;;10.80;99.90;;;;;;5093447;28;20518;-78
2022/11/18 08:24:01;;;;;;;4.80;2.70;;;10.90;99.90;;;;;;5086581;28;20533;-80
2022/11/18 08:26:29;;;;;;;3.13;2.80;;;10.90;99.90;;;;;;5083549;28;20854;-78
2022/11/18 08:28:57;;;;;;;4.80;3.17;;;10.90;99.90;;;;;;5077619;28;20952;-79
2022/11/18 08:31:26;;;;;;;12.20;3.50;;;10.90;99.90;;;;;;5072588;28;20482;-80
2022/11/18 08:33:55;;;;;;;6.77;3.40;;;10.90;99.90;;;;;;5070833;28;20497;-80
2022/11/18 08:36:26;;;;;;;8.80;3.73;;;10.90;99.90;;;;;;5073292;28;20454;-79
2022/11/18 08:38:55;;;;;;;7.60;3.23;;;10.90;99.90;;;;;;5070933;28;20458;-80
2022/11/18 08:41:29;;;;;;;8.17;3.70;;;11.00;99.90;;;;;;5072934;28;20450;-80
2022/11/18 08:43:57;;;;;;;8.63;4.73;;;11.00;99.90;;;;;;5078869;28;20962;-79
2022/11/18 08:46:23;;;;;;;5.60;3.40;;;11.00;99.90;;;;;;5078292;28;20447;-80
2022/11/18 08:48:50;;;;;;;8.27;5.17;;;11.00;99.90;;;;;;5081112;28;20454;-79
2022/11/18 08:51:17;;;;;;;6.57;4.13;;;11.10;99.90;;;;;;5081856;28;20480;-79
2022/11/18 08:53:44;;;;;;;7.30;6.53;;;11.10;99.90;;;;;;5080311;28;20451;-80
2022/11/18 08:56:14;;;;;;;7.50;6.70;;;11.10;99.90;;;;;;5078060;28;20482;-79
2022/11/18 08:58:41;;;;;;;9.80;8.23;;;11.20;99.90;;;;;;5076827;28;20542;-78
2022/11/18 09:01:10;;;;;;;7.87;7.07;;;11.30;99.90;;;;;;5076428;28;20513;-79
2022/11/18 09:03:37;;;;;;;7.20;6.47;;;11.40;99.90;;;;;;5082628;28;20527;-78
2022/11/18 09:06:07;;;;;;;11.23;6.90;;;11.50;99.90;;;;;;5073945;28;20547;-79
2022/11/18 09:08:34;;;;;;;6.87;5.67;;;11.60;99.90;;;;;;5085370;28;20477;-79
2022/11/18 09:11:05;;;;;;;7.87;4.47;;;11.60;99.90;;;;;;5075627;28;20511;-79
2022/11/18 09:13:32;;;;;;;5.10;2.93;;;11.60;99.90;;;;;;5075080;28;20451;-79
2022/11/18 09:15:59;;;;;;;6.13;2.70;;;11.70;99.90;;;;;;5064779;28;20530;-79
2022/11/18 09:18:28;;;;;;;11.30;5.40;;;11.70;99.90;;;;;;5082197;28;20455;-78
2022/11/18 09:20:55;;;;;;;6.50;2.77;;;11.70;99.90;;;;;;5084920;28;20451;-79
2022/11/18 09:23:22;;;;;;;4.37;3.23;;;11.80;99.90;;;;;;5084130;28;20457;-79
2022/11/18 09:25:49;;;;;;;8.70;3.50;;;11.60;99.90;;;;;;5084793;28;20480;-79
2022/11/18 09:28:15;;;;;;;6.70;2.57;;;11.60;99.90;;;;;;5084675;28;20453;-79
2022/11/18 09:30:42;;;;;;;7.40;3.20;;;11.50;99.90;;;;;;5083618;28;20523;-79
2022/11/18 09:33:09;;;;;;;3.40;2.53;;;11.40;99.90;;;;;;5085484;28;20533;-79
2022/11/18 09:35:42;;;;;;;10.10;3.40;;;11.40;99.90;;;;;;5085797;28;20522;-79
2022/11/18 09:38:08;;;;;;;5.30;3.00;;;11.40;99.90;;;;;;5083371;28;20522;-79
2022/11/18 09:40:43;;;;;;;5.00;2.80;;;11.30;99.90;;;;;;5084390;28;20928;-79
2022/11/18 09:43:19;;;;;;;6.10;3.00;;;11.40;99.90;;;;;;5082690;28;20465;-79
2022/11/18 09:45:53;;;;;;;8.50;3.70;;;11.40;99.90;;;;;;5084146;28;20467;-79
2022/11/18 09:49:11;;;;;;;14.20;4.17;;;11.40;99.90;;;;;;5082751;28;20538;-79
2022/11/18 09:51:12;;;;;;;6.20;3.50;;;11.50;99.90;;;;;;5065863;28;20924;-79
2022/11/18 09:53:43;;;;;;;10.73;4.30;;;11.60;99.90;;;;;;5085104;28;20454;-78
2022/11/18 09:56:15;;;;;;;12.07;7.73;;;11.70;99.90;;;;;;5084313;28;20538;-79
2022/11/18 09:58:42;;;;;;;12.90;8.97;;;11.60;99.90;;;;;;5084495;28;20523;-78
2022/11/18 10:01:13;;;;;;;11.20;8.40;;;11.60;99.90;;;;;;5083909;28;20514;-78
2022/11/18 10:03:40;;;;;;;15.77;9.83;;;11.50;99.90;;;;;;5080666;28;20451;-78
2022/11/18 10:06:19;;;;;;;11.63;7.83;;;11.50;99.90;;;;;;5076836;28;20533;-78
2022/11/18 10:08:58;;;;;;;12.00;8.20;;;11.50;99.90;;;;;;5074562;28;20499;-79
2022/11/18 10:11:32;;;;;;;9.10;6.67;;;11.40;99.90;;;;;;5068066;28;20529;-79
2022/11/18 10:14:15;;;;;;;9.50;6.77;;;11.40;99.90;;;;;;5078670;28;21064;-79
2022/11/18 10:16:48;;;;;;;8.40;6.60;;;11.50;99.90;;;;;;5076357;28;20515;-79
2022/11/18 10:19:25;;;;;;;11.40;8.43;;;11.50;99.90;;;;;;5076088;28;20628;-78
2022/11/18 10:22:04;;;;;;;11.27;7.40;;;11.70;99.90;;;;;;5080140;28;20503;-79
2022/11/18 10:24:39;;;;;;;14.83;8.50;;;11.70;99.90;;;;;;5077360;28;20533;-79
2022/11/18 10:27:10;;;;;;;8.90;8.00;;;11.70;99.90;;;;;;5079127;28;20896;-79
2022/11/18 10:29:37;;;;;;;9.43;5.97;;;11.80;99.90;;;;;;5083705;28;20513;-79
2022/11/18 10:32:06;;;;;;;7.23;6.00;;;11.70;99.90;;;;;;5083394;28;20565;-77
2022/11/18 10:34:34;;;;;;;7.97;5.10;;;11.60;99.90;;;;;;5082939;28;20471;-79
2022/11/18 10:37:04;;;;;;;9.77;6.40;;;11.70;99.90;;;;;;5076281;28;20459;-79
2022/11/18 10:39:31;;;;;;;6.60;5.20;;;11.80;99.90;;;;;;5078618;28;20546;-79
2022/11/18 10:42:01;;;;;;;9.33;5.83;;;11.90;99.90;;;;;;5079810;28;20521;-80
2022/11/18 10:44:36;;;;;;;12.47;6.10;;;12.00;99.90;;;;;;5080830;28;21087;-79
2022/11/18 10:47:31;;;;;;;7.93;6.73;;;12.20;99.90;;;;;;5079967;28;20502;-79
2022/11/18 10:49:59;;;;;;;6.53;5.83;;;12.40;99.90;;;;;;5048966;28;20468;-79
2022/11/18 10:52:29;;;;;;;12.13;6.87;;;12.40;99.90;;;;;;5067134;28;20497;-79
2022/11/18 10:55:20;;;;;;;8.70;4.83;;;12.50;99.90;;;;;;5077218;28;20474;-79
2022/11/18 10:57:50;;;;;;;9.87;4.80;;;12.80;99.90;;;;;;5079150;28;20448;-79
2022/11/18 11:00:38;;;;;;;5.10;3.60;;;13.10;99.90;;;;;;5083257;28;20455;-79
2022/11/18 11:03:35;;;;;;;8.47;3.13;;;13.00;99.90;;;;;;5082943;28;20448;-79
2022/11/18 11:06:28;;;;;;;4.70;2.23;;;13.10;99.90;;;;;;5077696;28;21013;-79
2022/11/18 11:08:59;;;;;;;8.00;2.53;;;13.40;99.90;;;;;;5079091;28;20457;-79
2022/11/18 11:11:28;;;;;;;4.37;1.50;;;14.60;99.90;;;;;;5071412;28;20550;-79
2022/11/18 11:14:03;;;;;;;4.87;2.20;;;15.20;99.90;;;;;;5082015;28;20449;-79
2022/11/18 11:16:31;;;;;;;3.17;2.10;;;15.10;99.90;;;;;;5076925;28;20484;-80
2022/11/18 11:19:02;;;;;;;3.17;1.90;;;15.20;99.90;;;;;;5081387;28;20450;-79
2022/11/18 11:21:29;;;;;;;4.83;1.63;;;15.30;99.90;;;;;;5075790;28;20506;-79
2022/11/18 11:23:58;;;;;;;3.00;1.60;;;16.00;99.90;;;;;;5076832;28;20548;-79
2022/11/18 11:26:32;;;;;;;6.17;1.70;;;15.90;99.90;;;;;;5074522;28;20487;-78
2022/11/18 11:29:05;;;;;;;6.30;1.80;;;15.20;99.90;;;;;;5073680;28;20455;-79
2022/11/18 11:31:43;;;;;;;3.90;1.93;;;14.80;99.90;;;;;;5075402;28;20484;-77
2022/11/18 11:34:20;;;;;;;6.80;2.10;;;14.60;99.90;;;;;;5076382;28;20508;-79
2022/11/18 11:36:51;;;;;;;3.97;2.20;;;14.20;99.90;;;;;;5076622;28;20480;-79
2022/11/18 11:39:42;;;;;;;5.47;1.53;;;14.10;99.90;;;;;;5074191;28;20480;-79
2022/11/18 11:42:21;;;;;;;7.70;1.93;;;14.10;99.90;;;;;;5078229;28;20515;-79
2022/11/18 11:45:01;;;;;;;6.67;1.57;;;14.10;99.90;;;;;;5082526;28;20552;-79
2022/11/18 11:47:48;;;;;;;4.90;1.60;;;13.90;99.90;;;;;;5075293;28;20454;-79
2022/11/18 11:50:23;;;;;;;7.53;2.80;;;13.80;99.90;;;;;;5062264;28;20456;-79
2022/11/18 11:53:03;;;;;;;6.10;1.87;;;13.80;99.90;;;;;;5079413;28;20477;-78
2022/11/18 11:55:39;;;;;;;6.93;1.80;;;13.70;99.90;;;;;;5082170;28;20546;-79
2022/11/18 11:58:19;;;;;;;4.07;1.80;;;13.70;99.90;;;;;;5108232;22;20514;-83
2022/11/18 12:00:55;;;;;;;4.50;1.90;;;13.80;99.90;;;;;;5082197;28;20454;-81
2022/11/18 12:03:44;;;;;;;6.50;1.80;;;14.40;99.90;;;;;;5094745;28;20449;-83
2022/11/18 12:06:18;;;;;;;5.90;2.20;;;15.70;99.90;;;;;;5101962;28;20889;-82
2022/11/18 12:08:56;;;;;;;5.57;2.33;;;16.20;99.90;;;;;;5077063;28;20451;-81
2022/11/18 12:11:34;;;;;;;6.07;1.90;;;16.20;99.90;;;;;;5074339;28;20454;-82
2022/11/18 12:14:11;;;;;;;7.50;2.60;;;16.10;99.90;;;;;;5071774;28;20520;-80
2022/11/18 12:16:45;;;;;;;4.90;1.80;;;16.20;99.90;;;;;;5079665;28;20455;-81
2022/11/18 12:19:14;;;;;;;4.60;2.07;;;16.20;99.90;;;;;;5070470;28;20888;-81
2022/11/18 12:22:02;;;;;;;4.63;1.57;;;15.70;99.90;;;;;;5079870;28;20752;-80
2022/11/18 12:24:35;;;;;;;5.90;2.30;;;15.50;99.90;;;;;;5080694;28;20481;-82
2022/11/18 12:27:06;;;;;;;4.03;1.90;;;15.60;99.90;;;;;;5080158;28;20462;-81
2022/11/18 12:29:41;;;;;;;5.90;2.27;;;15.20;99.90;;;;;;5078044;28;20440;-81
2022/11/18 12:32:35;;;;;;;4.67;1.83;;;14.90;99.90;;;;;;5075666;28;20490;-79
2022/11/18 12:35:04;;;;;;;4.50;1.77;;;15.20;99.90;;;;;;5076401;28;20457;-82
2022/11/18 12:37:58;;;;;;;4.70;1.50;;;14.90;99.90;;;;;;5076821;28;20471;-81
2022/11/18 12:40:42;;;;;;;5.63;1.60;;;14.70;99.90;;;;;;5077024;28;20938;-80
2022/11/18 12:44:05;;;;;;;6.53;2.70;;;14.40;99.90;;;;;;5076251;28;20544;-80
2022/11/18 12:46:53;;;;;;;6.23;2.37;;;14.30;99.90;;;;;;5075782;28;21006;-80
2022/11/18 12:50:09;;;;;;;3.83;1.30;;;14.10;99.90;;;;;;5068226;28;20530;-81
2022/11/18 12:52:52;;;;;;;5.13;1.50;;;14.10;99.90;;;;;;5068577;28;20486;-80
2022/11/18 12:55:24;;;;;;;4.27;1.47;;;13.80;99.90;;;;;;5076416;28;20451;-80
2022/11/18 12:57:52;;;;;;;3.97;1.60;;;13.70;99.90;;;;;;5075711;28;21010;-81
2022/11/18 13:00:50;;;;;;;5.63;1.47;;;13.60;99.90;;;;;;5078341;28;20456;-81
2022/11/18 13:03:27;;;;;;;7.73;1.77;;;13.40;99.90;;;;;;5077834;28;20441;-80
2022/11/18 13:06:02;;;;;;;3.37;1.30;;;13.30;99.90;;;;;;5075117;28;20546;-80
2022/11/18 13:08:29;;;;;;;5.20;1.43;;;13.30;99.90;;;;;;5079660;28;20490;-81
2022/11/18 13:13:43;;;;;;;5.97;2.10;;;13.60;99.90;;;;;;5075409;28;20484;-80
2022/11/18 13:19:05;;;;;;;4.30;1.47;;;13.50;99.90;;;;;;5075845;28;20495;-81
2022/11/18 13:24:18;;;;;;;10.53;2.13;;;13.50;99.90;;;;;;5073160;28;20460;-80
2022/11/18 13:26:46;;;;;;;6.43;1.80;;;13.40;99.90;;;;;;5074064;28;20468;-79
2022/11/18 13:29:26;;;;;;;4.57;1.87;;;13.30;99.90;;;;;;5075072;28;20532;-81
2022/11/18 13:32:03;;;;;;;8.40;2.90;;;13.40;99.90;;;;;;5074700;28;20486;-79